Crosslake, MN (56442)

6:38 AM CDT on September 05, 2015 (GMT -0500)
Lake Ossi | | Change Station
CLOSE
Current Station
Personal Weather Station
Location: Pequot Lakes, MN
Elevation: 1224 ft
Nearby Weather Stations

Elev 1224 ft 46.65 °N, 94.21 °W | Updated 10 seconds ago

Partly Cloudy
Partly Cloudy
71.1 °F
Feels Like 71.1 °F
N
0.7
Wind Variable Wind from East
Gusts 0.7 mph

Today
High -- | Low -- °F
--% Chance of Precip.
Yesterday
High -- | Low -- °F
Precip. -- in
6:41 AM 7:48 PM
Waning Gibbous, 49% visible
Pressure 29.95 in
Visibility 10.0 miles
Clouds Clear
Dew Point 68 °F
Humidity 90%
Rainfall 0.00 in
Snow Depth Not available.
UV 0 out of 12
Pollen 6.20 out of 12
Air Quality Not available.
Flu Activity Not available.
METAR KPWC 051134Z AUTO 12004KT 10SM CLR 21/21 A2995 RMK AO2 LTG DSNT NE THRU S
Pressure 29.95 in
Visibility 10.0 miles
Clouds Clear
Dew Point 68 °F
Humidity 90%
Rainfall 0.00 in
Snow Depth Not available.
UV 0 out of 12
Pollen 6.20 out of 12
Air Quality Not available.
Flu Activity Not available.
METAR KPWC 051134Z AUTO 12004KT 10SM CLR 21/21 A2995 RMK AO2 LTG DSNT NE THRU S

10-Day Weather Forecast

×

Almanac

Astronomy

Sep. 05, 2015 Rise Set
Actual Time
Civil Twilight
Nautical Twilight
Astronomical Twilight
Moon
Length of Visible Light
Length of Day
Tomorrow will be .
, % of the Moon is Illuminated

Today's Extremes

State Highs State Lows

Community

WunderPhotos

Upload Photos

1,852,449 photos uploaded!

WunderBlogs® & News

Nearby

Air Quality

  Air Quality AQ Index Pollutant
Not available.

Snow Depth

Station Depth Elevation

Earthquake Activity

City Distance Mag. Time & Date
Minimum magnitude displayed is 2.5.

Coastal Water Temperatures

Place Temperature

Stations

Nearby Weather Stations

Station Location Temp. Windchill Dew Point Humidity Wind Precip. Elev Updated Type